Time;durP1;ratioP1;P1;durP2;ratioP2;P2;SDS_P1;SDS_P2;PMS_P1;PMS_P2;Temp;Humidity;BMP_temperature;BMP_pressure;BME280_temperature;BME280_humidity;BME280_pressure;Samples;Min_cycle;Max_cycle;Signal;HPM_P1;HPM_P2
2021/12/08 00:01:04;;;;;;;18.73;13.27;;;3.10;99.90;;;;;;5040204;28;20033;-81
2021/12/08 00:03:33;;;;;;;18.45;12.90;;;3.10;99.90;;;;;;5046983;28;20511;-83
2021/12/08 00:05:59;;;;;;;22.08;13.43;;;3.10;99.90;;;;;;5040556;28;20036;-81
2021/12/08 00:08:33;;;;;;;18.58;13.13;;;3.20;99.90;;;;;;5038885;28;20033;-82
2021/12/08 00:13:35;;;;;;;18.33;12.65;;;3.20;99.90;;;;;;5054282;28;20515;-82
2021/12/08 00:16:07;;;;;;;16.15;12.10;;;3.10;99.90;;;;;;5038484;28;20414;-82
2021/12/08 00:18:33;;;;;;;21.58;12.80;;;3.20;99.90;;;;;;5034943;28;20033;-81
2021/12/08 00:21:02;;;;;;;20.63;13.52;;;3.10;99.90;;;;;;5057126;28;20120;-81
2021/12/08 00:23:29;;;;;;;16.98;12.07;;;3.10;99.90;;;;;;5055089;28;20099;-83
2021/12/08 00:25:56;;;;;;;19.73;13.20;;;3.10;99.90;;;;;;5037315;28;20144;-80
2021/12/08 00:28:23;;;;;;;20.30;12.95;;;3.10;99.90;;;;;;5037535;28;20148;-80
2021/12/08 00:30:52;;;;;;;19.95;13.02;;;3.10;99.90;;;;;;5026351;28;20462;-81
2021/12/08 00:33:21;;;;;;;17.55;12.68;;;3.10;99.90;;;;;;5031713;28;20049;-81
2021/12/08 00:35:49;;;;;;;18.10;12.50;;;3.10;99.90;;;;;;5018983;28;20033;-81
2021/12/08 00:38:17;;;;;;;21.98;14.52;;;3.10;99.90;;;;;;5034772;28;20033;-80
2021/12/08 00:40:44;;;;;;;20.60;14.20;;;3.10;99.90;;;;;;5037951;28;20033;-81
2021/12/08 00:43:10;;;;;;;22.42;14.18;;;3.10;99.90;;;;;;5039375;28;20039;-81
2021/12/08 00:45:35;;;;;;;22.45;14.23;;;3.00;99.90;;;;;;5037978;28;20041;-80
2021/12/08 00:48:02;;;;;;;19.40;13.30;;;3.00;99.90;;;;;;5030268;28;20029;-81
2021/12/08 00:50:31;;;;;;;19.75;12.85;;;3.10;99.90;;;;;;5023682;28;20041;-81
2021/12/08 00:52:57;;;;;;;17.55;12.13;;;3.00;99.90;;;;;;5025374;28;20025;-82
2021/12/08 00:55:24;;;;;;;20.30;13.63;;;3.10;99.90;;;;;;5024041;28;20041;-81
2021/12/08 00:57:50;;;;;;;21.48;12.65;;;3.10;99.90;;;;;;5024063;28;20143;-81
2021/12/08 01:00:23;;;;;;;21.08;13.55;;;3.10;99.90;;;;;;5023868;28;20417;-81
2021/12/08 01:02:49;;;;;;;22.73;12.68;;;3.00;99.90;;;;;;5039829;28;20043;-80
2021/12/08 01:05:18;;;;;;;19.13;12.32;;;3.00;99.90;;;;;;5025432;28;20086;-82
2021/12/08 01:07:44;;;;;;;16.38;12.30;;;3.00;99.90;;;;;;5024787;28;20033;-80
2021/12/08 01:10:17;;;;;;;17.52;12.38;;;3.10;99.90;;;;;;5024553;28;20037;-81
2021/12/08 01:12:43;;;;;;;14.73;11.60;;;3.10;99.90;;;;;;5030542;28;20488;-81
2021/12/08 01:15:09;;;;;;;17.90;12.02;;;3.10;99.90;;;;;;5038724;28;20033;-82
2021/12/08 01:17:36;;;;;;;17.50;12.25;;;3.00;99.90;;;;;;5021524;28;20085;-80
2021/12/08 01:20:04;;;;;;;17.52;12.85;;;3.00;99.90;;;;;;5021423;28;20126;-81
2021/12/08 01:22:30;;;;;;;16.20;12.50;;;2.90;99.90;;;;;;5020760;28;20030;-82
2021/12/08 01:24:56;;;;;;;17.30;13.50;;;2.90;99.90;;;;;;5004994;28;20451;-81
2021/12/08 01:27:21;;;;;;;17.90;12.68;;;3.00;99.90;;;;;;5012073;28;20096;-80
2021/12/08 01:29:48;;;;;;;15.73;12.30;;;3.00;99.90;;;;;;5024800;28;20029;-80
2021/12/08 01:32:14;;;;;;;17.58;12.55;;;2.90;99.90;;;;;;5040215;28;20072;-83
2021/12/08 01:34:40;;;;;;;16.02;12.55;;;2.90;99.90;;;;;;5040027;28;20047;-81
2021/12/08 01:37:05;;;;;;;15.90;12.30;;;2.90;99.90;;;;;;5040434;28;20037;-80
2021/12/08 01:39:31;;;;;;;16.08;12.63;;;2.90;99.90;;;;;;5040992;28;20482;-80
2021/12/08 01:41:57;;;;;;;18.73;13.15;;;2.80;99.90;;;;;;5022803;28;20040;-80
2021/12/08 01:47:06;;;;;;;19.70;13.52;;;2.70;99.90;;;;;;5056745;28;20033;-81
2021/12/08 01:49:32;;;;;;;16.55;11.95;;;2.80;99.90;;;;;;5040006;28;20044;-80
2021/12/08 01:52:00;;;;;;;17.35;13.00;;;2.80;99.90;;;;;;5039593;28;20374;-79
2021/12/08 01:54:26;;;;;;;16.85;13.02;;;2.90;99.90;;;;;;5039849;28;20033;-81
2021/12/08 01:56:52;;;;;;;18.42;13.63;;;2.80;99.90;;;;;;5040213;28;20044;-81
2021/12/08 01:59:17;;;;;;;18.92;15.02;;;2.80;99.90;;;;;;5039744;28;20043;-81
2021/12/08 02:01:45;;;;;;;20.67;14.45;;;2.80;99.90;;;;;;5039882;28;20110;-80
2021/12/08 02:04:11;;;;;;;22.27;15.18;;;2.80;99.90;;;;;;5039002;28;20082;-81
2021/12/08 02:06:42;;;;;;;21.65;14.02;;;2.80;99.90;;;;;;5039757;28;20083;-81
2021/12/08 02:09:10;;;;;;;20.17;14.57;;;2.90;99.90;;;;;;5039997;28;20029;-79
2021/12/08 02:11:37;;;;;;;23.30;14.90;;;2.90;99.90;;;;;;5039150;28;20036;-80
2021/12/08 02:14:03;;;;;;;24.02;14.38;;;2.90;99.90;;;;;;5038756;28;20036;-81
2021/12/08 02:16:30;;;;;;;24.08;14.48;;;2.90;99.90;;;;;;5039252;28;20039;-81
2021/12/08 02:18:56;;;;;;;19.60;13.65;;;2.90;99.90;;;;;;5060179;28;20032;-83
2021/12/08 02:21:35;;;;;;;22.90;15.15;;;3.00;99.90;;;;;;5039165;28;20400;-81
2021/12/08 02:24:05;;;;;;;26.60;16.77;;;3.00;99.90;;;;;;5022791;28;20029;-80
2021/12/08 02:26:31;;;;;;;23.42;15.57;;;2.90;99.90;;;;;;5040090;28;20029;-80
2021/12/08 02:29:00;;;;;;;24.98;15.27;;;2.90;99.90;;;;;;5021862;28;20043;-81
2021/12/08 02:31:44;;;;;;;24.15;16.30;;;2.90;99.90;;;;;;5038770;28;20029;-82
2021/12/08 02:47:53;;;;;;;;;;;2.90;99.90;;;;;;5057392;28;20216;-79
2021/12/08 02:50:27;;;;;;;28.25;16.48;;;2.90;99.90;;;;;;5038463;28;19908;-81
2021/12/08 02:52:54;;;;;;;26.05;18.00;;;2.90;99.90;;;;;;5038600;28;20044;-81
2021/12/08 02:55:20;;;;;;;27.83;16.88;;;2.90;99.90;;;;;;5023036;28;20032;-80
2021/12/08 02:57:46;;;;;;;30.10;18.98;;;2.80;99.90;;;;;;5056884;28;20024;-80
2021/12/08 03:00:16;;;;;;;26.25;17.50;;;2.80;99.90;;;;;;5039059;28;20029;-81
2021/12/08 03:02:42;;;;;;;31.65;18.92;;;2.80;99.90;;;;;;5023113;28;20039;-83
2021/12/08 03:05:08;;;;;;;28.70;17.45;;;2.80;99.90;;;;;;5041322;28;20128;-81
2021/12/08 03:07:34;;;;;;;32.28;18.75;;;2.80;99.90;;;;;;5039355;28;20408;-80
2021/12/08 03:10:09;;;;;;;31.27;19.10;;;2.80;99.90;;;;;;5037847;28;20082;-80
2021/12/08 03:12:36;;;;;;;30.70;17.80;;;2.80;99.90;;;;;;5037824;28;20036;-82
2021/12/08 03:15:02;;;;;;;29.15;18.08;;;2.80;99.90;;;;;;5022225;28;20029;-80
2021/12/08 03:17:28;;;;;;;29.48;17.88;;;2.70;99.90;;;;;;5022464;28;20071;-81
2021/12/08 03:19:54;;;;;;;31.73;18.63;;;2.70;99.90;;;;;;5022394;28;20036;-81
2021/12/08 03:22:20;;;;;;;29.63;18.15;;;2.80;99.90;;;;;;5029678;28;20040;-80
2021/12/08 03:24:47;;;;;;;32.75;19.55;;;2.80;99.90;;;;;;5038783;28;20033;-81
2021/12/08 03:27:18;;;;;;;31.42;19.65;;;2.80;99.90;;;;;;5039265;28;20029;-80
2021/12/08 03:29:57;;;;;;;31.48;19.25;;;2.80;99.90;;;;;;5054848;28;20094;-81
2021/12/08 03:32:31;;;;;;;28.58;18.17;;;2.70;99.90;;;;;;5037262;28;20067;-81
2021/12/08 03:34:57;;;;;;;30.15;17.80;;;2.70;99.90;;;;;;5038306;28;20420;-80
2021/12/08 03:37:29;;;;;;;29.30;17.80;;;2.80;99.90;;;;;;5038332;28;20116;-81
2021/12/08 03:39:57;;;;;;;33.00;19.33;;;2.80;99.90;;;;;;5038822;28;20029;-81
2021/12/08 03:42:26;;;;;;;33.85;19.13;;;2.80;99.90;;;;;;5039182;28;20090;-80
2021/12/08 03:44:55;;;;;;;28.02;17.48;;;2.70;99.90;;;;;;5037815;28;20124;-81
2021/12/08 03:47:27;;;;;;;31.42;18.15;;;2.70;99.90;;;;;;5039545;28;20044;-81
2021/12/08 03:49:54;;;;;;;29.98;18.10;;;2.70;99.90;;;;;;5057383;28;20037;-84
2021/12/08 03:52:20;;;;;;;31.52;17.83;;;2.80;99.90;;;;;;5040127;28;20040;-83
2021/12/08 03:54:45;;;;;;;33.85;18.67;;;2.80;99.90;;;;;;5058402;28;20025;-85
2021/12/08 03:57:11;;;;;;;32.03;19.13;;;2.80;99.90;;;;;;5042455;28;20045;-83
2021/12/08 03:59:37;;;;;;;28.92;18.35;;;2.80;99.90;;;;;;5046007;28;20040;-85
2021/12/08 04:02:03;;;;;;;26.70;18.45;;;2.80;99.90;;;;;;5046108;28;20100;-84
2021/12/08 04:04:30;;;;;;;30.52;18.02;;;2.90;99.90;;;;;;5046538;28;20045;-84
2021/12/08 04:06:58;;;;;;;28.52;17.67;;;2.90;99.90;;;;;;5047547;28;20033;-86
2021/12/08 04:09:35;;;;;;;31.33;17.90;;;2.90;99.90;;;;;;5041980;28;20072;-84
2021/12/08 04:12:01;;;;;;;34.88;18.45;;;2.80;99.90;;;;;;5042087;28;20071;-85
2021/12/08 04:14:35;;;;;;;26.00;16.85;;;2.80;99.90;;;;;;5043436;28;20485;-82
2021/12/08 04:17:12;;;;;;;32.50;18.52;;;2.80;99.90;;;;;;5056563;28;20033;-81
2021/12/08 04:19:39;;;;;;;28.55;17.35;;;2.90;99.90;;;;;;5055657;28;20097;-82
2021/12/08 04:22:15;;;;;;;30.50;18.52;;;2.80;99.90;;;;;;5048631;28;20037;-83
2021/12/08 04:24:43;;;;;;;31.30;17.13;;;2.90;99.90;;;;;;5056194;28;20032;-82
2021/12/08 04:27:13;;;;;;;34.45;18.33;;;2.90;99.90;;;;;;5028333;28;20044;-84
2021/12/08 04:29:42;;;;;;;30.25;18.52;;;3.00;99.90;;;;;;5063073;28;20047;-84
2021/12/08 04:32:10;;;;;;;30.35;18.30;;;3.00;99.90;;;;;;5028057;28;20025;-83
2021/12/08 04:34:39;;;;;;;31.75;18.42;;;2.90;99.90;;;;;;5061837;28;20067;-84
2021/12/08 04:37:10;;;;;;;28.27;18.17;;;2.90;99.90;;;;;;5043591;28;20032;-84
2021/12/08 04:39:49;;;;;;;37.28;18.63;;;2.90;99.90;;;;;;5060559;28;20043;-83
2021/12/08 04:42:20;;;;;;;34.17;17.90;;;3.00;99.90;;;;;;5043989;28;20040;-85
2021/12/08 04:44:53;;;;;;;33.30;17.15;;;3.00;99.90;;;;;;5029209;28;20500;-84
2021/12/08 04:53:00;;;;;;;30.48;17.75;;;3.00;99.90;;;;;;5045027;28;20036;-83
2021/12/08 05:09:18;;;;;;;30.17;17.70;;;2.90;99.90;;;;;;5049619;28;20058;-81
2021/12/08 05:11:48;;;;;;;30.30;18.35;;;3.00;99.90;;;;;;5056949;28;20025;-81
2021/12/08 05:14:22;;;;;;;32.47;18.00;;;3.00;99.90;;;;;;5039752;28;20053;-83
2021/12/08 05:16:53;;;;;;;33.10;17.45;;;2.90;99.90;;;;;;5052919;28;20064;-84
2021/12/08 05:19:22;;;;;;;31.15;17.15;;;2.80;99.90;;;;;;5050122;28;20029;-83
2021/12/08 05:21:50;;;;;;;27.90;17.10;;;2.90;99.90;;;;;;5039772;28;20044;-83
2021/12/08 05:24:23;;;;;;;33.95;20.80;;;2.90;99.90;;;;;;5057601;28;20036;-82
2021/12/08 05:26:57;;;;;;;33.85;19.52;;;2.90;99.90;;;;;;5057482;28;20078;-81
2021/12/08 05:29:29;;;;;;;34.95;19.05;;;2.90;99.90;;;;;;5071810;28;20029;-84
2021/12/08 05:31:57;;;;;;;28.65;17.60;;;3.00;99.90;;;;;;5048538;28;20029;-80
2021/12/08 05:34:23;;;;;;;35.55;18.42;;;3.00;99.90;;;;;;5053022;28;20033;-84
2021/12/08 05:36:49;;;;;;;32.17;18.60;;;2.90;99.90;;;;;;5023004;28;20089;-81
2021/12/08 05:39:20;;;;;;;31.45;18.02;;;2.90;99.90;;;;;;5040169;28;20063;-85
2021/12/08 05:41:48;;;;;;;32.97;19.45;;;2.90;99.90;;;;;;5024565;28;20030;-84
2021/12/08 05:44:14;;;;;;;36.75;19.48;;;2.90;99.90;;;;;;5023672;28;20046;-83
2021/12/08 05:46:47;;;;;;;51.67;19.10;;;2.90;99.90;;;;;;5024912;28;20032;-86
2021/12/08 05:49:16;;;;;;;31.15;17.63;;;2.80;99.90;;;;;;5043419;28;20061;-86
2021/12/08 05:51:43;;;;;;;34.03;18.30;;;2.90;99.90;;;;;;5024379;28;20061;-85
2021/12/08 05:54:16;;;;;;;26.58;17.13;;;2.90;99.90;;;;;;5025501;28;20029;-85
2021/12/08 05:56:42;;;;;;;29.45;19.17;;;2.90;99.90;;;;;;5042536;28;20041;-85
2021/12/08 05:59:10;;;;;;;37.65;18.52;;;2.90;99.90;;;;;;5025557;28;20084;-83
2021/12/08 06:01:51;;;;;;;54.80;19.77;;;2.80;99.90;;;;;;5041957;28;20025;-84
2021/12/08 06:04:18;;;;;;;36.05;18.70;;;2.90;99.90;;;;;;5025497;28;20036;-83
2021/12/08 06:06:47;;;;;;;34.92;18.77;;;2.90;99.90;;;;;;5027268;28;20095;-86
2021/12/08 06:09:16;;;;;;;30.50;17.38;;;2.90;99.90;;;;;;5027102;28;20037;-85
2021/12/08 06:11:43;;;;;;;30.98;18.23;;;2.90;99.90;;;;;;5043875;28;20049;-83
2021/12/08 06:14:10;;;;;;;31.52;18.92;;;2.90;99.90;;;;;;5027767;28;20093;-84
2021/12/08 06:16:38;;;;;;;37.13;19.52;;;2.80;99.90;;;;;;5024110;28;20509;-81
2021/12/08 06:19:06;;;;;;;35.20;18.35;;;2.70;99.90;;;;;;5024756;28;20109;-80
2021/12/08 06:21:32;;;;;;;28.50;18.13;;;2.70;99.90;;;;;;5049221;28;20515;-82
2021/12/08 06:24:00;;;;;;;33.13;18.27;;;2.80;99.90;;;;;;5029222;28;20029;-82
2021/12/08 06:26:27;;;;;;;31.30;17.75;;;2.80;99.90;;;;;;5031425;28;20040;-84
2021/12/08 06:28:54;;;;;;;99.10;21.70;;;2.80;99.90;;;;;;5039099;28;20029;-83
2021/12/08 06:31:21;;;;;;;31.15;17.77;;;2.80;99.90;;;;;;5031209;28;20036;-86
2021/12/08 06:33:47;;;;;;;30.67;16.85;;;2.80;99.90;;;;;;5025823;28;20044;-84
2021/12/08 06:36:22;;;;;;;38.72;19.20;;;2.80;99.90;;;;;;5041248;28;20036;-83
2021/12/08 06:38:48;;;;;;;52.15;21.23;;;2.80;99.90;;;;;;5042250;28;20069;-84
2021/12/08 06:41:22;;;;;;;52.67;25.80;;;2.90;99.90;;;;;;5045460;28;20051;-86
2021/12/08 06:43:55;;;;;;;39.53;19.38;;;2.90;99.90;;;;;;5063972;28;20033;-82
2021/12/08 06:46:22;;;;;;;27.38;16.08;;;2.90;99.90;;;;;;5050988;28;20032;-83
2021/12/08 06:48:53;;;;;;;29.75;17.55;;;3.00;99.90;;;;;;5048077;28;20040;-83
2021/12/08 06:51:32;;;;;;;27.27;16.92;;;3.00;99.90;;;;;;5045351;28;20050;-84
2021/12/08 06:54:03;;;;;;;30.52;17.88;;;3.00;99.90;;;;;;5029574;28;20047;-84
2021/12/08 06:56:38;;;;;;;31.90;17.08;;;2.90;99.90;;;;;;5042241;28;20116;-83
2021/12/08 06:59:06;;;;;;;;;;;2.90;99.90;;;;;;5055103;28;20033;-84
2021/12/08 07:01:52;;;;;;;39.85;18.30;;;2.90;99.90;;;;;;5038642;28;20308;-85
2021/12/08 07:04:34;;;;;;;44.22;17.80;;;2.90;99.90;;;;;;5049702;28;20581;-82
2021/12/08 07:07:11;;;;;;;33.38;16.38;;;3.00;99.90;;;;;;5033826;28;20033;-83
2021/12/08 07:09:47;;;;;;;37.90;18.45;;;3.00;99.90;;;;;;5020905;28;20033;-83
2021/12/08 07:12:34;;;;;;;32.33;16.00;;;3.00;99.90;;;;;;5036173;28;20033;-83
2021/12/08 07:15:21;;;;;;;26.30;15.45;;;3.00;99.90;;;;;;5040490;28;20112;-85
2021/12/08 07:17:51;;;;;;;27.42;15.80;;;2.90;99.90;;;;;;5058904;28;20035;-84
2021/12/08 07:20:39;;;;;;;33.10;16.98;;;2.90;99.90;;;;;;5024590;28;20025;-85
2021/12/08 07:23:05;;;;;;;45.90;17.63;;;3.00;99.90;;;;;;5026303;28;20040;-85
2021/12/08 07:25:33;;;;;;;27.13;16.00;;;3.10;99.90;;;;;;5057650;28;20037;-87
2021/12/08 07:27:59;;;;;;;25.58;15.00;;;3.10;99.90;;;;;;5059149;28;20120;-87
2021/12/08 07:30:33;;;;;;;34.28;16.00;;;3.10;99.90;;;;;;5060944;28;20052;-84
2021/12/08 07:32:59;;;;;;;32.63;15.45;;;3.20;99.90;;;;;;5043644;28;20040;-82
2021/12/08 07:35:33;;;;;;;38.67;17.02;;;3.20;99.90;;;;;;5056686;28;20029;-83
2021/12/08 07:37:59;;;;;;;33.45;16.35;;;3.30;99.90;;;;;;5036873;28;20045;-83
2021/12/08 07:40:58;;;;;;;40.00;18.20;;;3.30;99.90;;;;;;5037374;28;20033;-84
2021/12/08 07:43:26;;;;;;;42.00;18.17;;;3.30;99.90;;;;;;5022266;28;20378;-85
2021/12/08 07:46:02;;;;;;;63.70;22.05;;;3.30;99.90;;;;;;5047699;28;20036;-83
2021/12/08 07:48:34;;;;;;;55.65;20.38;;;3.30;99.90;;;;;;5042590;28;20088;-83
2021/12/08 07:51:06;;;;;;;69.70;23.20;;;3.30;99.90;;;;;;5038074;28;20033;-84
2021/12/08 07:53:32;;;;;;;66.90;21.52;;;3.30;99.90;;;;;;5044015;28;20041;-85
2021/12/08 07:56:04;;;;;;;51.53;20.13;;;3.40;99.90;;;;;;5043434;28;20036;-84
2021/12/08 07:58:34;;;;;;;37.00;17.00;;;3.40;99.90;;;;;;5042716;28;20048;-84
2021/12/08 08:01:23;;;;;;;47.03;20.77;;;3.40;99.90;;;;;;5046409;28;20044;-85
2021/12/08 08:03:49;;;;;;;43.25;19.50;;;3.50;99.90;;;;;;5031627;28;20447;-85
2021/12/08 08:06:25;;;;;;;28.70;16.38;;;3.50;99.90;;;;;;5046743;28;20116;-85
2021/12/08 08:08:51;;;;;;;29.05;16.15;;;3.40;99.90;;;;;;5030809;28;20025;-83
2021/12/08 08:11:23;;;;;;;27.45;16.52;;;3.40;99.90;;;;;;5039359;28;20025;-84
2021/12/08 08:13:49;;;;;;;23.60;15.38;;;3.40;99.90;;;;;;5048578;28;20054;-81
2021/12/08 08:16:17;;;;;;;24.17;14.95;;;3.40;99.90;;;;;;5077293;28;20467;-81
2021/12/08 08:18:50;;;;;;;21.60;14.27;;;3.30;99.90;;;;;;5050236;28;20128;-85
2021/12/08 08:21:23;;;;;;;22.63;13.05;;;3.30;99.90;;;;;;5046962;28;20064;-84
2021/12/08 08:23:50;;;;;;;21.83;13.05;;;3.40;99.90;;;;;;5062686;28;20389;-84
2021/12/08 08:26:17;;;;;;;19.00;12.63;;;3.40;99.90;;;;;;5047436;28;20059;-85
2021/12/08 08:28:48;;;;;;;21.92;12.93;;;3.50;99.90;;;;;;5026668;28;20037;-86
2021/12/08 08:31:21;;;;;;;21.35;13.00;;;3.50;99.90;;;;;;5034754;28;20029;-83
2021/12/08 08:33:47;;;;;;;23.58;12.27;;;3.50;99.90;;;;;;5028962;28;20036;-84
2021/12/08 08:36:17;;;;;;;21.38;11.75;;;3.60;99.90;;;;;;5029287;28;20130;-86
2021/12/08 08:38:52;;;;;;;26.55;14.02;;;3.60;99.90;;;;;;5048961;28;20038;-86
2021/12/08 08:41:50;;;;;;;27.85;15.00;;;3.60;99.90;;;;;;5029222;28;20033;-85
2021/12/08 08:44:24;;;;;;;39.08;15.95;;;3.60;99.90;;;;;;5016417;28;20116;-85
2021/12/08 08:46:52;;;;;;;43.90;19.05;;;3.60;99.90;;;;;;5047505;28;20052;-85
2021/12/08 08:49:27;;;;;;;48.10;19.77;;;3.60;99.90;;;;;;5043692;28;20029;-87
2021/12/08 08:52:13;;;;;;;45.00;22.05;;;3.50;99.90;;;;;;5042645;28;20076;-85
2021/12/08 08:54:43;;;;;;;39.90;19.33;;;3.50;99.90;;;;;;5039777;28;20044;-86
2021/12/08 08:57:26;;;;;;;35.60;17.55;;;3.60;99.90;;;;;;5054003;28;20036;-86
2021/12/08 09:00:05;;;;;;;34.40;20.60;;;3.70;99.90;;;;;;5011299;28;20052;-86
2021/12/08 09:02:37;;;;;;;29.45;16.40;;;3.80;99.90;;;;;;5033786;28;20033;-84
2021/12/08 09:05:15;;;;;;;27.70;16.80;;;3.80;99.90;;;;;;5041653;28;20047;-86
2021/12/08 09:07:50;;;;;;;25.95;15.60;;;3.70;99.90;;;;;;5046951;28;20392;-87
2021/12/08 09:10:27;;;;;;;28.23;16.25;;;3.80;99.90;;;;;;5044175;28;20028;-86
2021/12/08 09:13:11;;;;;;;25.55;14.57;;;3.80;99.90;;;;;;5045896;28;20047;-85
2021/12/08 09:15:49;;;;;;;27.58;16.35;;;3.80;99.90;;;;;;5049711;28;20041;-85
2021/12/08 09:18:20;;;;;;;25.55;15.35;;;3.80;99.90;;;;;;5030838;28;20033;-86
2021/12/08 09:20:58;;;;;;;22.98;14.20;;;3.90;99.90;;;;;;5030511;28;20032;-87
2021/12/08 09:23:33;;;;;;;22.33;14.68;;;3.90;99.90;;;;;;5067375;28;20047;-87
2021/12/08 09:26:12;;;;;;;42.25;17.58;;;3.80;99.90;;;;;;5068815;28;20033;-87
2021/12/08 09:28:46;;;;;;;39.47;17.38;;;3.80;99.90;;;;;;5045126;28;20025;-87
2021/12/08 09:31:23;;;;;;;47.97;19.02;;;3.90;99.90;;;;;;5059825;28;20025;-85
2021/12/08 09:34:00;;;;;;;45.15;17.25;;;3.90;99.90;;;;;;5052185;28;20093;-85
2021/12/08 09:36:41;;;;;;;46.03;18.08;;;3.90;99.90;;;;;;5024148;28;20029;-83
2021/12/08 09:39:48;;;;;;;29.40;12.77;;;4.00;99.90;;;;;;5030122;28;20045;-83
2021/12/08 09:42:40;;;;;;;38.15;13.52;;;4.00;99.90;;;;;;5017366;28;20041;-84
2021/12/08 09:45:15;;;;;;;58.50;18.80;;;4.00;99.90;;;;;;5042091;28;20045;-84
2021/12/08 09:47:40;;;;;;;21.20;11.43;;;4.10;99.90;;;;;;5059502;28;20025;-81
2021/12/08 09:50:10;;;;;;;69.70;19.70;;;4.20;99.90;;;;;;5035649;28;20048;-85
2021/12/08 09:52:37;;;;;;;47.45;15.32;;;4.20;99.90;;;;;;5038198;28;20040;-82
2021/12/08 09:55:05;;;;;;;33.70;13.02;;;4.30;99.90;;;;;;5027389;28;20059;-84
2021/12/08 09:57:32;;;;;;;48.35;16.00;;;4.30;99.70;;;;;;5044005;28;20075;-85
2021/12/08 09:59:59;;;;;;;55.72;17.75;;;4.40;99.70;;;;;;5043991;28;20040;-83
2021/12/08 10:02:33;;;;;;;49.15;16.92;;;4.40;99.70;;;;;;5037401;28;20025;-84
2021/12/08 10:05:11;;;;;;;25.50;12.13;;;4.50;99.60;;;;;;5024056;28;20325;-85
2021/12/08 10:07:37;;;;;;;20.17;11.65;;;4.50;99.40;;;;;;5044153;28;20122;-87
2021/12/08 10:10:09;;;;;;;26.17;11.35;;;4.50;99.40;;;;;;5043293;28;20031;-84
2021/12/08 10:12:37;;;;;;;25.70;11.88;;;4.50;99.60;;;;;;5053297;28;20022;-86
2021/12/08 10:15:08;;;;;;;27.55;12.50;;;4.40;99.70;;;;;;5050203;28;20040;-83
2021/12/08 10:17:33;;;;;;;22.40;12.05;;;4.40;99.60;;;;;;5062553;28;20047;-85
2021/12/08 10:20:14;;;;;;;18.63;10.98;;;4.40;99.50;;;;;;5052923;28;20032;-83
2021/12/08 10:22:42;;;;;;;21.45;12.25;;;4.40;99.60;;;;;;5043954;28;20033;-82
2021/12/08 10:25:20;;;;;;;16.60;10.95;;;4.40;99.70;;;;;;5038740;28;20080;-82
2021/12/08 10:28:10;;;;;;;17.02;11.05;;;4.40;99.80;;;;;;5042145;28;20075;-85
2021/12/08 10:31:04;;;;;;;18.25;11.10;;;4.50;99.70;;;;;;5042548;28;20036;-85
2021/12/08 10:33:36;;;;;;;;;;;4.40;99.80;;;;;;5029449;28;20045;-86
2021/12/08 10:36:05;;;;;;;14.80;10.25;;;4.40;99.50;;;;;;5042674;28;19905;-86
2021/12/08 10:38:41;;;;;;;18.00;10.45;;;4.50;99.50;;;;;;5040907;28;20032;-84
2021/12/08 10:41:08;;;;;;;15.52;9.68;;;4.50;99.20;;;;;;5055625;28;20108;-86
2021/12/08 10:43:34;;;;;;;14.57;10.40;;;4.50;99.40;;;;;;5043007;28;20053;-85
2021/12/08 10:46:07;;;;;;;14.63;9.68;;;4.40;99.30;;;;;;5043795;28;20048;-84
2021/12/08 10:48:39;;;;;;;15.23;9.82;;;4.50;99.40;;;;;;5042167;28;20036;-85
2021/12/08 10:54:23;;;;;;;16.67;10.10;;;4.50;99.50;;;;;;5044442;28;20025;-85
2021/12/08 10:56:49;;;;;;;15.60;10.15;;;4.60;99.50;;;;;;5059894;28;20059;-84
2021/12/08 10:59:14;;;;;;;17.70;11.48;;;4.60;99.40;;;;;;5041718;28;20530;-85
2021/12/08 11:01:40;;;;;;;17.05;9.80;;;4.60;99.30;;;;;;5010114;28;20124;-86
2021/12/08 11:04:11;;;;;;;13.57;9.40;;;4.60;99.30;;;;;;5008095;28;20123;-82
2021/12/08 11:06:39;;;;;;;14.48;9.52;;;4.50;99.40;;;;;;5041318;28;20087;-84
2021/12/08 11:09:13;;;;;;;14.10;9.35;;;4.50;99.50;;;;;;5007894;28;20048;-86
2021/12/08 11:11:43;;;;;;;16.35;10.18;;;4.50;99.50;;;;;;5057870;28;20021;-84
2021/12/08 11:14:11;;;;;;;16.02;9.43;;;4.50;99.40;;;;;;5043672;28;20095;-85
2021/12/08 11:16:39;;;;;;;14.38;8.80;;;4.60;99.40;;;;;;5061017;28;20029;-84
2021/12/08 11:19:22;;;;;;;16.38;9.98;;;4.60;99.20;;;;;;5042945;28;20100;-84
2021/12/08 11:21:57;;;;;;;14.18;8.70;;;4.70;99.10;;;;;;5008638;28;20040;-84
2021/12/08 11:24:33;;;;;;;16.45;8.90;;;4.70;99.20;;;;;;5029041;28;20056;-83
2021/12/08 11:27:05;;;;;;;19.65;11.90;;;4.60;99.20;;;;;;5037912;28;20458;-86
2021/12/08 11:29:35;;;;;;;14.38;9.15;;;4.60;99.20;;;;;;5022171;28;20034;-83
2021/12/08 11:32:09;;;;;;;14.55;9.73;;;4.50;99.20;;;;;;5007748;28;20029;-84
2021/12/08 11:34:43;;;;;;;15.57;9.15;;;4.50;99.30;;;;;;5040873;28;20472;-82
2021/12/08 11:37:14;;;;;;;16.45;9.63;;;4.60;99.40;;;;;;5024910;28;20069;-82
2021/12/08 11:39:45;;;;;;;14.95;9.43;;;4.60;99.30;;;;;;5041912;28;20034;-82
2021/12/08 11:42:16;;;;;;;15.80;8.95;;;4.70;99.30;;;;;;5008837;28;20038;-82
2021/12/08 11:44:45;;;;;;;13.25;8.95;;;4.70;99.00;;;;;;5019476;28;20120;-83
2021/12/08 11:47:14;;;;;;;16.90;9.20;;;4.70;99.10;;;;;;5020632;28;20032;-82
2021/12/08 11:49:52;;;;;;;12.38;8.50;;;4.80;99.00;;;;;;5021575;28;20105;-81
2021/12/08 11:52:23;;;;;;;15.43;9.02;;;4.80;99.10;;;;;;5039069;28;20035;-83
2021/12/08 11:55:01;;;;;;;21.15;9.05;;;4.80;99.00;;;;;;5061020;28;20097;-84
2021/12/08 11:57:52;;;;;;;14.90;9.38;;;4.70;99.10;;;;;;5062776;28;20137;-82
2021/12/08 12:00:21;;;;;;;15.50;9.35;;;4.70;99.40;;;;;;5062196;28;20039;-83
2021/12/08 12:03:01;;;;;;;12.77;8.45;;;4.70;99.60;;;;;;5063127;28;20493;-81
2021/12/08 12:05:32;;;;;;;12.95;8.75;;;4.70;99.30;;;;;;5066501;28;20045;-81
2021/12/08 12:07:59;;;;;;;10.70;8.30;;;4.80;99.20;;;;;;5061465;28;20036;-84
2021/12/08 12:10:28;;;;;;;18.42;8.23;;;4.80;99.20;;;;;;5078864;28;20029;-85
2021/12/08 12:12:54;;;;;;;14.10;8.57;;;4.90;99.10;;;;;;5073278;28;20082;-86
2021/12/08 12:15:23;;;;;;;11.25;7.95;;;5.00;99.10;;;;;;5040237;28;20036;-81
2021/12/08 12:17:51;;;;;;;12.55;8.20;;;5.00;99.10;;;;;;5039954;28;20025;-81
2021/12/08 12:20:39;;;;;;;16.55;11.35;;;5.00;99.00;;;;;;5074709;28;20025;-82
2021/12/08 12:23:20;;;;;;;11.13;8.30;;;5.00;99.10;;;;;;5057716;28;20035;-81
2021/12/08 12:26:03;;;;;;;14.88;8.68;;;4.90;99.20;;;;;;5057721;28;20036;-83
2021/12/08 12:29:06;;;;;;;11.95;8.18;;;4.80;99.30;;;;;;5060659;28;20029;-82
2021/12/08 12:32:04;;;;;;;12.95;7.70;;;4.80;99.40;;;;;;5058751;28;20029;-83
2021/12/08 12:34:36;;;;;;;13.27;8.60;;;4.80;99.30;;;;;;5073213;28;20037;-83
2021/12/08 12:37:25;;;;;;;11.43;8.32;;;4.80;99.40;;;;;;5038508;28;20558;-82
2021/12/08 12:39:53;;;;;;;13.10;8.05;;;4.80;99.30;;;;;;5072194;28;20037;-80
2021/12/08 12:42:20;;;;;;;19.17;9.15;;;4.80;99.40;;;;;;5072827;28;20098;-82
2021/12/08 12:45:06;;;;;;;14.27;9.02;;;4.80;99.40;;;;;;5074608;28;20101;-83
2021/12/08 12:47:32;;;;;;;16.33;9.35;;;4.80;99.50;;;;;;5076374;28;20484;-82
2021/12/08 12:50:04;;;;;;;20.95;10.27;;;4.70;99.70;;;;;;5077277;28;20048;-82
2021/12/08 12:52:42;;;;;;;13.60;8.82;;;4.70;99.80;;;;;;5062324;28;20021;-82
2021/12/08 12:55:16;;;;;;;16.67;8.93;;;4.80;99.60;;;;;;5061015;28;20061;-83
2021/12/08 12:58:05;;;;;;;12.27;9.13;;;4.80;99.60;;;;;;5065875;28;20040;-82
2021/12/08 13:00:38;;;;;;;14.70;9.25;;;4.70;99.70;;;;;;5044817;28;20064;-83
2021/12/08 13:03:07;;;;;;;13.52;8.95;;;4.70;99.90;;;;;;5043930;28;20562;-86
2021/12/08 13:05:51;;;;;;;13.95;9.20;;;4.70;99.90;;;;;;5046199;28;20449;-83
2021/12/08 13:08:34;;;;;;;12.65;9.00;;;4.70;99.90;;;;;;5043279;28;20052;-83
2021/12/08 13:11:11;;;;;;;22.80;9.57;;;4.60;99.90;;;;;;5043868;28;20028;-83
2021/12/08 13:13:49;;;;;;;12.57;8.38;;;4.60;99.90;;;;;;5042383;28;20021;-83
2021/12/08 13:16:22;;;;;;;14.25;9.52;;;4.60;99.90;;;;;;5044404;28;20029;-86
2021/12/08 13:19:05;;;;;;;14.25;9.23;;;4.50;99.90;;;;;;5063145;28;20029;-84
2021/12/08 13:21:46;;;;;;;15.10;8.68;;;4.60;99.90;;;;;;5045684;28;20082;-83
2021/12/08 13:24:38;;;;;;;14.43;9.18;;;4.60;99.90;;;;;;5046554;28;20029;-89
2021/12/08 13:27:28;;;;;;;13.63;8.55;;;4.60;99.90;;;;;;5047262;28;20028;-84
2021/12/08 13:30:14;;;;;;;71.13;14.77;;;4.60;99.90;;;;;;5045509;28;20029;-85
2021/12/08 13:32:56;;;;;;;20.70;12.20;;;4.60;99.90;;;;;;5060782;28;20033;-85
2021/12/08 13:35:36;;;;;;;14.20;8.93;;;4.60;99.90;;;;;;5043778;28;20025;-84
2021/12/08 13:38:03;;;;;;;15.07;9.23;;;4.50;99.90;;;;;;5027890;28;20029;-86
2021/12/08 13:40:49;;;;;;;14.32;9.02;;;4.40;99.90;;;;;;5052199;28;20021;-85
2021/12/08 13:43:37;;;;;;;15.35;9.48;;;4.40;99.90;;;;;;5045877;28;20045;-85
2021/12/08 13:46:05;;;;;;;15.23;9.57;;;4.50;99.90;;;;;;5044055;28;20044;-84